createdAt,value
2023-05-12T00:00:21.033Z,72.50
2023-05-12T00:05:23.693Z,72.80
2023-05-12T00:10:28.414Z,72.40
2023-05-12T00:15:30.772Z,72.40
2023-05-12T00:20:32.992Z,73.00
2023-05-12T00:25:35.543Z,73.20
2023-05-12T00:30:38.308Z,73.00
2023-05-12T00:35:40.613Z,73.30
2023-05-12T00:40:42.855Z,73.50
2023-05-12T00:45:46.105Z,73.40
2023-05-12T00:50:48.565Z,73.10
2023-05-12T00:55:51.099Z,73.10
2023-05-12T01:00:53.338Z,73.50
2023-05-12T01:06:09.589Z,73.30
2023-05-12T01:11:12.064Z,73.60
2023-05-12T01:16:16.518Z,73.60
2023-05-12T01:21:19.743Z,73.70
2023-05-12T01:26:22.839Z,73.70
2023-05-12T01:31:25.762Z,74.20
2023-05-12T01:36:28.056Z,74.20
2023-05-12T01:41:31.125Z,74.20
2023-05-12T01:46:33.429Z,74.00
2023-05-12T01:51:36.606Z,74.30
2023-05-12T01:56:39.101Z,74.10
2023-05-12T02:01:41.520Z,74.40
2023-05-12T02:06:46.008Z,74.70
2023-05-12T02:11:48.801Z,74.70
2023-05-12T02:16:53.009Z,74.30
2023-05-12T02:21:57.458Z,74.80
2023-05-12T02:26:59.901Z,74.80
2023-05-12T02:32:02.469Z,74.70
2023-05-12T02:37:05.021Z,74.60
2023-05-12T02:42:07.589Z,74.70
2023-05-12T02:47:09.958Z,74.80
2023-05-12T02:52:12.262Z,75.10
2023-05-12T02:57:14.458Z,74.80
2023-05-12T03:02:16.889Z,74.80
2023-05-12T03:07:19.298Z,74.50
2023-05-12T03:12:21.831Z,74.80
2023-05-12T03:17:24.176Z,74.70
2023-05-12T03:22:26.682Z,75.10
2023-05-12T03:27:29.044Z,75.00
2023-05-12T03:32:31.661Z,75.20
2023-05-12T03:37:34.261Z,74.60
2023-05-12T03:42:36.989Z,74.50
2023-05-12T03:47:40.798Z,74.70
2023-05-12T03:52:43.855Z,74.70
2023-05-12T03:57:49.278Z,74.80
2023-05-12T04:02:52.323Z,74.70
2023-05-12T04:07:54.625Z,73.80
2023-05-12T04:12:57.388Z,73.90
2023-05-12T04:18:01.461Z,74.10
2023-05-12T04:23:03.674Z,73.90
2023-05-12T04:28:08.727Z,74.10
2023-05-12T04:33:12.015Z,73.60
2023-05-12T04:38:15.589Z,74.30
2023-05-12T04:48:23.613Z,73.30
2023-05-12T04:53:26.174Z,73.50
2023-05-12T04:58:28.656Z,73.30
2023-05-12T05:03:31.114Z,73.10
2023-05-12T05:08:33.494Z,72.50
2023-05-12T05:13:35.815Z,72.50
2023-05-12T05:18:38.301Z,72.30
2023-05-12T05:23:41.826Z,71.30
2023-05-12T05:28:44.680Z,71.00
2023-05-12T05:33:48.195Z,70.00
2023-05-12T05:38:50.569Z,69.00
2023-05-12T05:43:52.795Z,69.10
2023-05-12T05:48:55.040Z,69.00
2023-05-12T05:53:58.129Z,68.60
2023-05-12T05:59:03.376Z,68.40
2023-05-12T06:04:06.010Z,69.40
2023-05-12T06:09:09.706Z,67.00
2023-05-12T06:14:11.995Z,65.80
2023-05-12T06:19:14.405Z,66.90
2023-05-12T06:24:16.689Z,66.90
2023-05-12T06:29:19.870Z,65.70
2023-05-12T06:34:22.312Z,67.20
2023-05-12T06:39:25.274Z,65.60
2023-05-12T06:44:28.096Z,65.40
2023-05-12T06:49:31.221Z,65.80
2023-05-12T06:54:33.610Z,65.20
2023-05-12T06:59:36.049Z,65.30
2023-05-12T07:04:38.288Z,65.70
2023-05-12T07:09:42.410Z,64.30
2023-05-12T07:14:44.635Z,66.70
2023-05-12T07:19:46.792Z,66.40
2023-05-12T07:24:49.356Z,62.30
2023-05-12T07:29:51.585Z,61.70
2023-05-12T07:34:53.784Z,62.00
2023-05-12T07:39:56.095Z,61.90
2023-05-12T07:44:58.362Z,63.30
2023-05-12T07:50:01.038Z,62.40
2023-05-12T07:55:03.323Z,59.10
2023-05-12T08:00:06.498Z,60.20
2023-05-12T08:05:23.881Z,60.30
2023-05-12T08:10:29.698Z,61.10
2023-05-12T08:15:31.927Z,61.40
2023-05-12T08:20:35.001Z,60.40
2023-05-12T08:25:37.708Z,59.60
2023-05-12T08:30:40.427Z,60.10
2023-05-12T08:35:43.011Z,59.30
2023-05-12T08:41:01.703Z,61.40
2023-05-12T08:46:05.535Z,61.50
2023-05-12T08:51:11.863Z,62.90
2023-05-12T09:01:21.700Z,63.40
2023-05-12T09:06:25.100Z,62.70
2023-05-12T09:11:27.390Z,62.60
2023-05-12T09:16:32.685Z,63.80
2023-05-12T09:21:35.432Z,64.00
2023-05-12T09:26:56.156Z,62.10
2023-05-12T09:32:00.078Z,62.70
2023-05-12T09:37:06.632Z,62.80
2023-05-12T09:42:13.041Z,62.50
2023-05-12T09:47:16.052Z,63.00
2023-05-12T09:52:21.659Z,62.10
2023-05-12T09:57:26.298Z,63.60
2023-05-12T10:02:28.659Z,61.00
2023-05-12T10:07:31.468Z,62.00
2023-05-12T10:12:36.099Z,62.60
2023-05-12T10:17:42.193Z,61.40
2023-05-12T10:22:44.789Z,61.30
2023-05-12T10:27:48.626Z,61.00
2023-05-12T10:32:51.126Z,60.40
2023-05-12T10:37:53.750Z,60.70
2023-05-12T10:43:02.784Z,59.60
2023-05-12T10:48:07.305Z,59.30
2023-05-12T10:53:11.984Z,58.70
2023-05-12T10:58:14.553Z,58.60
2023-05-12T11:03:23.969Z,59.10
2023-05-12T11:08:28.326Z,56.60
2023-05-12T11:13:31.588Z,57.20
2023-05-12T11:18:33.825Z,57.10
2023-05-12T11:23:36.141Z,57.10
2023-05-12T11:28:41.710Z,56.60
2023-05-12T11:33:43.957Z,57.20
2023-05-12T11:38:51.625Z,57.80
2023-05-12T11:43:54.307Z,56.60
2023-05-12T11:48:57.854Z,57.40
2023-05-12T11:54:00.185Z,57.30
2023-05-12T11:59:02.581Z,57.50
2023-05-12T12:04:05.107Z,56.70
2023-05-12T12:09:08.695Z,56.20
2023-05-12T12:14:10.976Z,55.60
2023-05-12T12:19:13.843Z,55.10
2023-05-12T12:24:16.590Z,54.60
2023-05-12T12:29:19.127Z,53.60
2023-05-12T12:34:21.436Z,54.50
2023-05-12T12:39:24.419Z,55.00
2023-05-12T12:44:27.684Z,55.00
2023-05-12T12:49:29.993Z,54.10
2023-05-12T12:54:32.733Z,53.80
2023-05-12T12:59:34.977Z,54.60
2023-05-12T13:04:37.239Z,53.70
2023-05-12T13:09:39.600Z,53.50
2023-05-12T13:14:41.845Z,52.20
2023-05-12T13:19:44.048Z,53.20
2023-05-12T13:24:46.780Z,51.90
2023-05-12T13:29:49.077Z,51.70
2023-05-12T13:34:51.312Z,50.80
2023-05-12T13:39:53.936Z,51.70
2023-05-12T13:44:56.538Z,51.60
2023-05-12T13:49:58.991Z,50.70
2023-05-12T13:55:01.252Z,50.50
2023-05-12T14:00:04.169Z,50.40
2023-05-12T14:05:07.864Z,50.40
2023-05-12T14:10:10.890Z,50.70
2023-05-12T14:15:26.629Z,50.70
2023-05-12T14:20:35.913Z,50.10
2023-05-12T14:25:38.152Z,50.90
2023-05-12T14:30:40.857Z,50.30
2023-05-12T14:35:44.700Z,50.00
2023-05-12T14:40:50.931Z,49.90
2023-05-12T14:45:54.897Z,49.30
2023-05-12T14:50:57.933Z,50.30
2023-05-12T14:56:00.189Z,49.80
2023-05-12T15:01:02.941Z,49.70
2023-05-12T15:06:07.886Z,50.40
2023-05-12T15:11:10.613Z,50.70
2023-05-12T15:16:12.857Z,50.50
2023-05-12T15:21:15.318Z,50.20
2023-05-12T15:26:31.984Z,50.10
2023-05-12T15:31:35.848Z,50.40
2023-05-12T15:36:38.139Z,50.10
2023-05-12T15:41:40.617Z,50.50
2023-05-12T15:46:43.667Z,51.00
2023-05-12T15:51:46.037Z,51.50
2023-05-12T15:56:50.211Z,51.40
2023-05-12T16:01:52.492Z,50.80
2023-05-12T16:06:54.782Z,51.40
2023-05-12T16:11:57.831Z,51.70
2023-05-12T16:17:00.129Z,52.30
2023-05-12T16:22:02.412Z,52.20
2023-05-12T16:27:05.139Z,52.00
2023-05-12T16:32:07.610Z,52.20
2023-05-12T16:37:09.928Z,52.20
2023-05-12T16:42:13.557Z,52.40
2023-05-12T16:47:17.618Z,53.10
2023-05-12T16:52:20.679Z,52.80
2023-05-12T16:57:23.205Z,53.10
2023-05-12T17:02:25.755Z,53.10
2023-05-12T17:07:28.284Z,53.00
2023-05-12T17:12:30.563Z,53.10
2023-05-12T17:17:32.966Z,53.30
2023-05-12T17:22:41.336Z,53.10
2023-05-12T17:27:43.931Z,53.10
2023-05-12T17:32:46.267Z,52.50
2023-05-12T17:37:52.789Z,53.00
2023-05-12T17:42:55.533Z,52.70
2023-05-12T17:47:57.990Z,53.00
2023-05-12T17:53:00.258Z,52.90
2023-05-12T17:58:02.814Z,53.50
2023-05-12T18:03:05.295Z,54.00
2023-05-12T18:08:08.061Z,53.90
2023-05-12T18:13:10.820Z,53.20
2023-05-12T18:18:14.566Z,53.60
2023-05-12T18:23:16.922Z,53.50
2023-05-12T18:28:19.277Z,53.70
2023-05-12T18:33:21.461Z,53.80
2023-05-12T18:38:24.214Z,53.90
2023-05-12T18:43:26.848Z,53.60
2023-05-12T18:48:29.620Z,53.50
2023-05-12T18:53:31.872Z,53.90
2023-05-12T18:58:34.317Z,53.80
2023-05-12T19:03:37.348Z,53.70
2023-05-12T19:08:39.648Z,54.10
2023-05-12T19:13:45.231Z,54.80
2023-05-12T19:18:48.372Z,54.20
2023-05-12T19:23:50.725Z,54.10
2023-05-12T19:28:52.974Z,53.40
2023-05-12T19:33:55.387Z,54.00
2023-05-12T19:38:59.708Z,53.60
2023-05-12T19:44:02.312Z,53.70
2023-05-12T19:49:06.299Z,53.60
2023-05-12T19:54:10.065Z,53.30
2023-05-12T19:59:12.320Z,53.10
2023-05-12T20:04:14.671Z,52.60
2023-05-12T20:09:16.975Z,52.90
2023-05-12T20:14:19.363Z,53.00
2023-05-12T20:19:21.682Z,52.80
2023-05-12T20:24:23.979Z,52.80
2023-05-12T20:29:27.643Z,53.10
2023-05-12T20:34:29.965Z,52.60
2023-05-12T20:39:32.289Z,52.50
2023-05-12T20:44:35.516Z,52.40
2023-05-12T20:49:37.982Z,52.10
2023-05-12T20:54:40.240Z,52.50
2023-05-12T20:59:42.461Z,51.90
2023-05-12T21:04:44.706Z,51.90
2023-05-12T21:09:47.905Z,51.70
2023-05-12T21:14:50.139Z,51.60
2023-05-12T21:19:52.403Z,51.60
2023-05-12T21:24:54.971Z,51.60
2023-05-12T21:29:58.083Z,51.30
2023-05-12T21:35:00.299Z,51.40
2023-05-12T21:40:02.865Z,51.30
2023-05-12T21:45:06.400Z,51.60
2023-05-12T21:50:09.344Z,51.60
2023-05-12T21:55:12.734Z,51.60
2023-05-12T22:00:15.778Z,51.60
2023-05-12T22:05:18.257Z,51.40
2023-05-12T22:10:21.108Z,51.50
2023-05-12T22:15:23.780Z,51.40
2023-05-12T22:20:26.129Z,51.30
2023-05-12T22:25:28.427Z,51.20
2023-05-12T22:30:30.923Z,51.20
2023-05-12T22:35:33.182Z,51.20
2023-05-12T22:40:35.629Z,51.10
2023-05-12T22:45:38.484Z,51.00
2023-05-12T22:50:40.947Z,51.00
2023-05-12T22:55:43.150Z,50.90
2023-05-12T23:00:45.449Z,50.90
2023-05-12T23:05:47.709Z,50.80
2023-05-12T23:10:49.891Z,50.80
2023-05-12T23:15:52.595Z,50.70
2023-05-12T23:20:54.922Z,50.60
2023-05-12T23:25:57.566Z,50.80
2023-05-12T23:30:59.855Z,50.80
2023-05-12T23:36:02.207Z,50.80
2023-05-12T23:41:04.464Z,50.90
2023-05-12T23:46:07.286Z,51.00
2023-05-12T23:51:09.668Z,51.00
2023-05-12T23:56:11.818Z,51.00
